sensor_id;sensor_type;location;lat;lon;timestamp;temperature;humidity
5578;DHT22;2811;51.900;10.734;2022-12-07T00:00:00;2.50;99.90
5578;DHT22;2811;51.900;10.734;2022-12-07T00:02:27;2.50;99.90
5578;DHT22;2811;51.900;10.734;2022-12-07T00:04:54;2.50;99.90
5578;DHT22;2811;51.900;10.734;2022-12-07T00:07:21;2.50;99.90
5578;DHT22;2811;51.900;10.734;2022-12-07T00:09:47;2.40;99.90
5578;DHT22;2811;51.900;10.734;2022-12-07T00:12:15;2.40;99.90
5578;DHT22;2811;51.900;10.734;2022-12-07T00:14:42;2.40;99.90
5578;DHT22;2811;51.900;10.734;2022-12-07T00:17:09;2.40;99.90
5578;DHT22;2811;51.900;10.734;2022-12-07T00:19:35;2.30;99.90
5578;DHT22;2811;51.900;10.734;2022-12-07T00:22:02;2.30;99.90
5578;DHT22;2811;51.900;10.734;2022-12-07T00:24:29;2.20;99.90
5578;DHT22;2811;51.900;10.734;2022-12-07T00:26:56;2.20;99.90
5578;DHT22;2811;51.900;10.734;2022-12-07T00:29:24;2.20;99.90
5578;DHT22;2811;51.900;10.734;2022-12-07T00:31:51;2.20;99.90
5578;DHT22;2811;51.900;10.734;2022-12-07T00:34:19;2.30;99.90
5578;DHT22;2811;51.900;10.734;2022-12-07T00:36:47;2.30;99.90
5578;DHT22;2811;51.900;10.734;2022-12-07T00:39:14;2.60;99.90
5578;DHT22;2811;51.900;10.734;2022-12-07T00:41:41;2.70;99.90
5578;DHT22;2811;51.900;10.734;2022-12-07T00:44:08;2.90;99.90
5578;DHT22;2811;51.900;10.734;2022-12-07T00:46:36;3.00;99.90
5578;DHT22;2811;51.900;10.734;2022-12-07T00:49:02;3.10;99.90
5578;DHT22;2811;51.900;10.734;2022-12-07T00:51:29;3.10;99.90
5578;DHT22;2811;51.900;10.734;2022-12-07T00:53:56;3.20;99.90
5578;DHT22;2811;51.900;10.734;2022-12-07T00:56:24;3.20;99.90
5578;DHT22;2811;51.900;10.734;2022-12-07T00:58:53;3.20;99.90
5578;DHT22;2811;51.900;10.734;2022-12-07T01:01:21;3.30;99.90
5578;DHT22;2811;51.900;10.734;2022-12-07T01:03:49;3.30;99.90
5578;DHT22;2811;51.900;10.734;2022-12-07T01:06:17;3.30;99.90
5578;DHT22;2811;51.900;10.734;2022-12-07T01:08:44;3.40;99.90
5578;DHT22;2811;51.900;10.734;2022-12-07T01:11:13;3.40;99.90
5578;DHT22;2811;51.900;10.734;2022-12-07T01:13:40;3.60;99.90
5578;DHT22;2811;51.900;10.734;2022-12-07T01:16:10;3.40;99.90
5578;DHT22;2811;51.900;10.734;2022-12-07T01:18:37;3.50;99.90
5578;DHT22;2811;51.900;10.734;2022-12-07T01:21:07;3.60;99.90
5578;DHT22;2811;51.900;10.734;2022-12-07T01:23:35;3.60;99.90
5578;DHT22;2811;51.900;10.734;2022-12-07T01:26:05;3.60;99.90
5578;DHT22;2811;51.900;10.734;2022-12-07T01:28:32;3.50;99.90
5578;DHT22;2811;51.900;10.734;2022-12-07T01:31:01;3.50;99.90
5578;DHT22;2811;51.900;10.734;2022-12-07T01:33:28;3.60;99.90
5578;DHT22;2811;51.900;10.734;2022-12-07T01:36:01;3.90;99.90
5578;DHT22;2811;51.900;10.734;2022-12-07T01:38:30;3.70;99.90
5578;DHT22;2811;51.900;10.734;2022-12-07T01:40:57;3.80;99.90
5578;DHT22;2811;51.900;10.734;2022-12-07T01:43:27;3.80;99.90
5578;DHT22;2811;51.900;10.734;2022-12-07T01:45:55;3.80;99.90
5578;DHT22;2811;51.900;10.734;2022-12-07T01:48:25;3.90;99.90
5578;DHT22;2811;51.900;10.734;2022-12-07T01:50:53;3.90;99.90
5578;DHT22;2811;51.900;10.734;2022-12-07T01:53:25;3.90;99.90
5578;DHT22;2811;51.900;10.734;2022-12-07T01:55:54;4.00;99.90
5578;DHT22;2811;51.900;10.734;2022-12-07T01:58:23;3.90;99.90
5578;DHT22;2811;51.900;10.734;2022-12-07T02:00:50;3.90;99.90
5578;DHT22;2811;51.900;10.734;2022-12-07T02:03:19;3.90;99.90
5578;DHT22;2811;51.900;10.734;2022-12-07T02:05:49;3.90;99.90
5578;DHT22;2811;51.900;10.734;2022-12-07T02:08:16;4.00;99.90
5578;DHT22;2811;51.900;10.734;2022-12-07T02:10:43;4.00;99.90
5578;DHT22;2811;51.900;10.734;2022-12-07T02:13:14;4.00;99.90
5578;DHT22;2811;51.900;10.734;2022-12-07T02:15:51;4.00;99.90
5578;DHT22;2811;51.900;10.734;2022-12-07T02:18:28;4.00;99.90
5578;DHT22;2811;51.900;10.734;2022-12-07T02:21:03;4.00;99.90
5578;DHT22;2811;51.900;10.734;2022-12-07T02:27:03;4.20;99.90
5578;DHT22;2811;51.900;10.734;2022-12-07T02:29:36;4.20;99.90
5578;DHT22;2811;51.900;10.734;2022-12-07T02:32:12;4.20;99.90
5578;DHT22;2811;51.900;10.734;2022-12-07T02:34:47;4.30;99.90
5578;DHT22;2811;51.900;10.734;2022-12-07T02:37:22;4.30;99.90
5578;DHT22;2811;51.900;10.734;2022-12-07T02:39:55;4.30;99.90
5578;DHT22;2811;51.900;10.734;2022-12-07T02:42:28;4.30;99.90
5578;DHT22;2811;51.900;10.734;2022-12-07T02:44:59;4.20;99.90
5578;DHT22;2811;51.900;10.734;2022-12-07T02:47:27;4.20;99.90
5578;DHT22;2811;51.900;10.734;2022-12-07T02:49:56;4.20;99.90
5578;DHT22;2811;51.900;10.734;2022-12-07T02:52:23;4.20;99.90
5578;DHT22;2811;51.900;10.734;2022-12-07T02:54:49;4.30;99.90
5578;DHT22;2811;51.900;10.734;2022-12-07T02:57:29;4.30;99.90
5578;DHT22;2811;51.900;10.734;2022-12-07T03:00:04;4.30;99.90
5578;DHT22;2811;51.900;10.734;2022-12-07T03:02:40;4.30;99.90
5578;DHT22;2811;51.900;10.734;2022-12-07T03:05:20;4.30;99.90
5578;DHT22;2811;51.900;10.734;2022-12-07T03:07:59;4.20;99.90
5578;DHT22;2811;51.900;10.734;2022-12-07T03:10:33;4.20;99.90
5578;DHT22;2811;51.900;10.734;2022-12-07T03:13:07;4.20;99.90
5578;DHT22;2811;51.900;10.734;2022-12-07T03:15:41;4.20;99.90
5578;DHT22;2811;51.900;10.734;2022-12-07T03:18:11;4.20;99.90
5578;DHT22;2811;51.900;10.734;2022-12-07T03:20:40;4.20;99.90
5578;DHT22;2811;51.900;10.734;2022-12-07T03:23:09;4.20;99.90
5578;DHT22;2811;51.900;10.734;2022-12-07T03:25:41;4.20;99.90
5578;DHT22;2811;51.900;10.734;2022-12-07T03:28:10;4.10;99.90
5578;DHT22;2811;51.900;10.734;2022-12-07T03:30:43;4.20;99.90
5578;DHT22;2811;51.900;10.734;2022-12-07T03:33:15;4.10;99.90
5578;DHT22;2811;51.900;10.734;2022-12-07T03:35:48;4.10;99.90
5578;DHT22;2811;51.900;10.734;2022-12-07T03:38:19;4.10;99.90
5578;DHT22;2811;51.900;10.734;2022-12-07T03:40:52;4.10;99.90
5578;DHT22;2811;51.900;10.734;2022-12-07T03:43:21;4.10;99.90
5578;DHT22;2811;51.900;10.734;2022-12-07T03:45:59;4.20;99.90
5578;DHT22;2811;51.900;10.734;2022-12-07T03:48:33;4.20;99.90
5578;DHT22;2811;51.900;10.734;2022-12-07T03:51:07;4.30;99.90
5578;DHT22;2811;51.900;10.734;2022-12-07T03:53:41;4.20;99.90
5578;DHT22;2811;51.900;10.734;2022-12-07T03:56:10;4.20;99.90
5578;DHT22;2811;51.900;10.734;2022-12-07T03:58:38;4.30;99.90
5578;DHT22;2811;51.900;10.734;2022-12-07T04:01:07;4.30;99.90
5578;DHT22;2811;51.900;10.734;2022-12-07T04:03:33;4.20;99.90
5578;DHT22;2811;51.900;10.734;2022-12-07T04:06:00;4.10;99.90
5578;DHT22;2811;51.900;10.734;2022-12-07T04:08:27;4.10;99.90
5578;DHT22;2811;51.900;10.734;2022-12-07T04:10:54;4.20;99.90
5578;DHT22;2811;51.900;10.734;2022-12-07T04:13:21;4.10;99.90
5578;DHT22;2811;51.900;10.734;2022-12-07T04:15:48;4.20;99.90
5578;DHT22;2811;51.900;10.734;2022-12-07T04:18:16;4.30;99.90
5578;DHT22;2811;51.900;10.734;2022-12-07T04:20:42;4.20;99.90
5578;DHT22;2811;51.900;10.734;2022-12-07T04:23:09;4.20;99.90
5578;DHT22;2811;51.900;10.734;2022-12-07T04:25:36;4.20;99.90
5578;DHT22;2811;51.900;10.734;2022-12-07T04:28:03;4.20;99.90
5578;DHT22;2811;51.900;10.734;2022-12-07T04:30:30;4.20;99.90
5578;DHT22;2811;51.900;10.734;2022-12-07T04:32:56;4.20;99.90
5578;DHT22;2811;51.900;10.734;2022-12-07T04:35:24;4.10;99.90
5578;DHT22;2811;51.900;10.734;2022-12-07T04:37:51;4.00;99.90
5578;DHT22;2811;51.900;10.734;2022-12-07T04:40:18;4.00;99.90
5578;DHT22;2811;51.900;10.734;2022-12-07T04:42:45;4.10;99.90
5578;DHT22;2811;51.900;10.734;2022-12-07T04:45:11;4.20;99.90
5578;DHT22;2811;51.900;10.734;2022-12-07T04:47:38;4.10;99.90
5578;DHT22;2811;51.900;10.734;2022-12-07T04:50:06;4.10;99.90
5578;DHT22;2811;51.900;10.734;2022-12-07T04:52:34;4.10;99.90
5578;DHT22;2811;51.900;10.734;2022-12-07T04:55:01;4.10;99.90
5578;DHT22;2811;51.900;10.734;2022-12-07T04:57:28;4.10;99.90
5578;DHT22;2811;51.900;10.734;2022-12-07T04:59:54;4.10;99.90
5578;DHT22;2811;51.900;10.734;2022-12-07T05:02:21;4.10;99.90
5578;DHT22;2811;51.900;10.734;2022-12-07T05:04:48;4.10;99.90
5578;DHT22;2811;51.900;10.734;2022-12-07T05:07:14;4.20;99.90
5578;DHT22;2811;51.900;10.734;2022-12-07T05:09:43;4.20;99.90
5578;DHT22;2811;51.900;10.734;2022-12-07T05:12:09;4.20;99.90
5578;DHT22;2811;51.900;10.734;2022-12-07T05:14:36;4.20;99.90
5578;DHT22;2811;51.900;10.734;2022-12-07T05:17:03;4.20;99.90
5578;DHT22;2811;51.900;10.734;2022-12-07T05:19:30;4.20;99.90
5578;DHT22;2811;51.900;10.734;2022-12-07T05:21:57;4.20;99.90
5578;DHT22;2811;51.900;10.734;2022-12-07T05:24:24;4.10;99.90
5578;DHT22;2811;51.900;10.734;2022-12-07T05:26:52;4.10;99.90
5578;DHT22;2811;51.900;10.734;2022-12-07T05:29:18;4.00;99.90
5578;DHT22;2811;51.900;10.734;2022-12-07T05:31:45;4.00;99.90
5578;DHT22;2811;51.900;10.734;2022-12-07T05:34:12;4.00;99.90
5578;DHT22;2811;51.900;10.734;2022-12-07T05:36:39;3.90;99.90
5578;DHT22;2811;51.900;10.734;2022-12-07T05:39:06;4.00;99.90
5578;DHT22;2811;51.900;10.734;2022-12-07T05:41:33;4.00;99.90
5578;DHT22;2811;51.900;10.734;2022-12-07T05:44:33;4.00;99.90
5578;DHT22;2811;51.900;10.734;2022-12-07T05:47:00;4.00;99.90
5578;DHT22;2811;51.900;10.734;2022-12-07T05:49:27;4.00;99.90
5578;DHT22;2811;51.900;10.734;2022-12-07T05:51:53;4.00;99.90
5578;DHT22;2811;51.900;10.734;2022-12-07T05:54:20;4.00;99.90
5578;DHT22;2811;51.900;10.734;2022-12-07T05:56:47;4.00;99.90
5578;DHT22;2811;51.900;10.734;2022-12-07T05:59:14;4.00;99.90
5578;DHT22;2811;51.900;10.734;2022-12-07T06:01:51;4.00;99.90
5578;DHT22;2811;51.900;10.734;2022-12-07T06:04:18;3.90;99.90
5578;DHT22;2811;51.900;10.734;2022-12-07T06:06:45;3.90;99.90
5578;DHT22;2811;51.900;10.734;2022-12-07T06:09:11;3.90;99.90
5578;DHT22;2811;51.900;10.734;2022-12-07T06:11:38;4.00;99.90
5578;DHT22;2811;51.900;10.734;2022-12-07T06:14:23;4.00;99.90
5578;DHT22;2811;51.900;10.734;2022-12-07T06:16:51;4.00;99.90
5578;DHT22;2811;51.900;10.734;2022-12-07T06:19:18;4.20;99.90
5578;DHT22;2811;51.900;10.734;2022-12-07T06:21:45;4.30;99.90
5578;DHT22;2811;51.900;10.734;2022-12-07T06:24:13;4.30;99.90
5578;DHT22;2811;51.900;10.734;2022-12-07T06:26:40;4.20;99.90
5578;DHT22;2811;51.900;10.734;2022-12-07T06:29:08;4.20;99.90
5578;DHT22;2811;51.900;10.734;2022-12-07T06:31:35;4.20;99.90
5578;DHT22;2811;51.900;10.734;2022-12-07T06:34:05;4.10;99.90
5578;DHT22;2811;51.900;10.734;2022-12-07T06:36:32;4.00;99.90
5578;DHT22;2811;51.900;10.734;2022-12-07T06:38:59;4.10;99.90
5578;DHT22;2811;51.900;10.734;2022-12-07T06:41:26;4.10;99.90
5578;DHT22;2811;51.900;10.734;2022-12-07T06:43:53;4.00;99.90
5578;DHT22;2811;51.900;10.734;2022-12-07T06:46:19;3.90;99.90
5578;DHT22;2811;51.900;10.734;2022-12-07T06:48:46;3.90;99.90
5578;DHT22;2811;51.900;10.734;2022-12-07T06:51:14;3.90;99.90
5578;DHT22;2811;51.900;10.734;2022-12-07T06:53:41;3.90;99.90
5578;DHT22;2811;51.900;10.734;2022-12-07T06:56:08;3.90;99.90
5578;DHT22;2811;51.900;10.734;2022-12-07T06:58:35;4.00;99.90
5578;DHT22;2811;51.900;10.734;2022-12-07T07:01:02;4.00;99.90
5578;DHT22;2811;51.900;10.734;2022-12-07T07:03:29;4.00;99.90
5578;DHT22;2811;51.900;10.734;2022-12-07T07:05:56;4.00;99.90
5578;DHT22;2811;51.900;10.734;2022-12-07T07:08:24;4.00;99.90
5578;DHT22;2811;51.900;10.734;2022-12-07T07:10:51;4.00;99.90
5578;DHT22;2811;51.900;10.734;2022-12-07T07:13:17;4.00;99.90
5578;DHT22;2811;51.900;10.734;2022-12-07T07:15:44;4.00;99.90
5578;DHT22;2811;51.900;10.734;2022-12-07T07:18:11;4.00;99.90
5578;DHT22;2811;51.900;10.734;2022-12-07T07:20:38;4.00;99.90
5578;DHT22;2811;51.900;10.734;2022-12-07T07:23:05;4.00;99.90
5578;DHT22;2811;51.900;10.734;2022-12-07T07:25:34;4.00;99.90
5578;DHT22;2811;51.900;10.734;2022-12-07T07:28:02;4.00;99.90
5578;DHT22;2811;51.900;10.734;2022-12-07T07:30:29;4.00;99.90
5578;DHT22;2811;51.900;10.734;2022-12-07T07:32:56;4.10;99.90
5578;DHT22;2811;51.900;10.734;2022-12-07T07:35:23;4.30;99.90
5578;DHT22;2811;51.900;10.734;2022-12-07T07:37:50;4.00;99.90
5578;DHT22;2811;51.900;10.734;2022-12-07T07:40:17;4.00;99.90
5578;DHT22;2811;51.900;10.734;2022-12-07T07:42:47;4.00;99.90
5578;DHT22;2811;51.900;10.734;2022-12-07T07:45:14;4.10;99.90
5578;DHT22;2811;51.900;10.734;2022-12-07T07:47:41;4.00;99.90
5578;DHT22;2811;51.900;10.734;2022-12-07T07:50:08;4.10;99.90
5578;DHT22;2811;51.900;10.734;2022-12-07T07:52:35;4.20;99.90
5578;DHT22;2811;51.900;10.734;2022-12-07T07:55:02;4.20;99.90
5578;DHT22;2811;51.900;10.734;2022-12-07T07:57:29;4.20;99.90
5578;DHT22;2811;51.900;10.734;2022-12-07T07:59:58;4.20;99.90
5578;DHT22;2811;51.900;10.734;2022-12-07T08:02:24;4.20;99.90
5578;DHT22;2811;51.900;10.734;2022-12-07T08:04:51;4.20;99.90
5578;DHT22;2811;51.900;10.734;2022-12-07T08:07:18;4.30;99.90
5578;DHT22;2811;51.900;10.734;2022-12-07T08:09:45;4.30;99.90
5578;DHT22;2811;51.900;10.734;2022-12-07T08:12:12;4.30;99.90
5578;DHT22;2811;51.900;10.734;2022-12-07T08:14:38;4.30;99.90
5578;DHT22;2811;51.900;10.734;2022-12-07T08:17:06;4.30;99.90
5578;DHT22;2811;51.900;10.734;2022-12-07T08:19:33;4.30;99.90
5578;DHT22;2811;51.900;10.734;2022-12-07T08:22:00;4.30;99.90
5578;DHT22;2811;51.900;10.734;2022-12-07T08:24:27;4.40;99.90
5578;DHT22;2811;51.900;10.734;2022-12-07T08:26:54;4.40;99.90
5578;DHT22;2811;51.900;10.734;2022-12-07T08:29:21;4.30;99.90
5578;DHT22;2811;51.900;10.734;2022-12-07T08:31:48;4.30;99.90
5578;DHT22;2811;51.900;10.734;2022-12-07T08:34:16;4.30;99.90
5578;DHT22;2811;51.900;10.734;2022-12-07T08:36:42;4.30;99.90
5578;DHT22;2811;51.900;10.734;2022-12-07T08:39:10;4.30;99.90
5578;DHT22;2811;51.900;10.734;2022-12-07T08:41:36;4.30;99.90
5578;DHT22;2811;51.900;10.734;2022-12-07T08:44:04;4.30;99.90
5578;DHT22;2811;51.900;10.734;2022-12-07T08:46:33;4.30;99.90
5578;DHT22;2811;51.900;10.734;2022-12-07T08:49:05;4.40;99.90
5578;DHT22;2811;51.900;10.734;2022-12-07T08:51:35;4.40;99.90
5578;DHT22;2811;51.900;10.734;2022-12-07T08:54:04;4.40;99.90
5578;DHT22;2811;51.900;10.734;2022-12-07T08:56:32;4.40;99.90
5578;DHT22;2811;51.900;10.734;2022-12-07T08:58:58;4.40;99.90
5578;DHT22;2811;51.900;10.734;2022-12-07T09:01:26;4.50;99.90
5578;DHT22;2811;51.900;10.734;2022-12-07T09:03:52;4.60;99.90
5578;DHT22;2811;51.900;10.734;2022-12-07T09:06:19;4.70;99.90
5578;DHT22;2811;51.900;10.734;2022-12-07T09:08:50;4.80;99.90
5578;DHT22;2811;51.900;10.734;2022-12-07T09:11:17;5.00;99.90
5578;DHT22;2811;51.900;10.734;2022-12-07T09:13:44;5.10;99.90
5578;DHT22;2811;51.900;10.734;2022-12-07T09:16:11;5.00;99.90
5578;DHT22;2811;51.900;10.734;2022-12-07T09:18:38;4.90;99.90
5578;DHT22;2811;51.900;10.734;2022-12-07T09:21:05;4.90;99.90
5578;DHT22;2811;51.900;10.734;2022-12-07T09:23:31;4.90;99.90
5578;DHT22;2811;51.900;10.734;2022-12-07T09:26:00;4.90;99.90
5578;DHT22;2811;51.900;10.734;2022-12-07T09:28:28;4.90;99.90
5578;DHT22;2811;51.900;10.734;2022-12-07T09:30:54;4.80;99.90
5578;DHT22;2811;51.900;10.734;2022-12-07T09:33:21;4.70;99.90
5578;DHT22;2811;51.900;10.734;2022-12-07T09:35:49;4.70;99.90
5578;DHT22;2811;51.900;10.734;2022-12-07T09:38:18;4.80;99.90
5578;DHT22;2811;51.900;10.734;2022-12-07T09:40:45;4.70;99.90
5578;DHT22;2811;51.900;10.734;2022-12-07T09:43:15;5.00;99.90
5578;DHT22;2811;51.900;10.734;2022-12-07T09:45:44;5.20;99.90
5578;DHT22;2811;51.900;10.734;2022-12-07T09:48:17;4.80;99.90
5578;DHT22;2811;51.900;10.734;2022-12-07T09:50:46;4.80;99.90
5578;DHT22;2811;51.900;10.734;2022-12-07T09:53:19;4.90;99.90
5578;DHT22;2811;51.900;10.734;2022-12-07T09:55:47;4.90;99.90
5578;DHT22;2811;51.900;10.734;2022-12-07T09:58:22;4.90;99.90
5578;DHT22;2811;51.900;10.734;2022-12-07T10:00:51;4.90;99.90
5578;DHT22;2811;51.900;10.734;2022-12-07T10:03:20;4.90;99.90
5578;DHT22;2811;51.900;10.734;2022-12-07T10:05:49;5.00;99.90
5578;DHT22;2811;51.900;10.734;2022-12-07T10:08:16;5.20;99.90
5578;DHT22;2811;51.900;10.734;2022-12-07T10:10:45;5.10;99.90
5578;DHT22;2811;51.900;10.734;2022-12-07T10:13:13;5.20;99.90
5578;DHT22;2811;51.900;10.734;2022-12-07T10:15:45;5.20;99.90
5578;DHT22;2811;51.900;10.734;2022-12-07T10:18:21;5.30;99.90
5578;DHT22;2811;51.900;10.734;2022-12-07T10:20:48;5.30;99.90
5578;DHT22;2811;51.900;10.734;2022-12-07T10:23:17;5.30;99.90
5578;DHT22;2811;51.900;10.734;2022-12-07T10:25:45;5.20;99.90
5578;DHT22;2811;51.900;10.734;2022-12-07T10:28:15;5.20;99.90
5578;DHT22;2811;51.900;10.734;2022-12-07T10:30:56;5.20;99.90
5578;DHT22;2811;51.900;10.734;2022-12-07T10:33:32;5.30;99.90
5578;DHT22;2811;51.900;10.734;2022-12-07T10:36:00;5.30;99.90
5578;DHT22;2811;51.900;10.734;2022-12-07T10:38:28;5.30;99.90
5578;DHT22;2811;51.900;10.734;2022-12-07T10:41:05;5.40;99.90
5578;DHT22;2811;51.900;10.734;2022-12-07T10:43:32;5.60;99.90
5578;DHT22;2811;51.900;10.734;2022-12-07T10:46:37;5.60;99.90
5578;DHT22;2811;51.900;10.734;2022-12-07T10:49:23;5.60;99.90
5578;DHT22;2811;51.900;10.734;2022-12-07T10:51:58;5.60;99.90
5578;DHT22;2811;51.900;10.734;2022-12-07T10:54:31;5.70;99.90
5578;DHT22;2811;51.900;10.734;2022-12-07T10:57:22;5.70;99.90
5578;DHT22;2811;51.900;10.734;2022-12-07T11:00:01;5.70;99.90
5578;DHT22;2811;51.900;10.734;2022-12-07T11:05:39;5.90;99.90
5578;DHT22;2811;51.900;10.734;2022-12-07T11:08:15;6.00;99.90
5578;DHT22;2811;51.900;10.734;2022-12-07T11:10:48;6.00;99.90
5578;DHT22;2811;51.900;10.734;2022-12-07T11:13:26;6.20;99.90
5578;DHT22;2811;51.900;10.734;2022-12-07T11:18:48;6.30;99.90
5578;DHT22;2811;51.900;10.734;2022-12-07T11:21:23;6.40;99.90
5578;DHT22;2811;51.900;10.734;2022-12-07T11:23:56;6.30;99.90
5578;DHT22;2811;51.900;10.734;2022-12-07T11:26:41;6.10;99.90
5578;DHT22;2811;51.900;10.734;2022-12-07T11:29:24;6.00;99.90
5578;DHT22;2811;51.900;10.734;2022-12-07T11:32:01;6.00;99.90
5578;DHT22;2811;51.900;10.734;2022-12-07T11:34:38;5.90;99.90
5578;DHT22;2811;51.900;10.734;2022-12-07T11:37:08;5.80;99.90
5578;DHT22;2811;51.900;10.734;2022-12-07T11:39:42;5.80;99.90
5578;DHT22;2811;51.900;10.734;2022-12-07T11:42:15;5.80;99.90
5578;DHT22;2811;51.900;10.734;2022-12-07T11:44:48;5.70;99.90
5578;DHT22;2811;51.900;10.734;2022-12-07T11:47:22;5.60;99.90
5578;DHT22;2811;51.900;10.734;2022-12-07T11:49:54;5.60;99.90
5578;DHT22;2811;51.900;10.734;2022-12-07T11:52:30;5.50;99.90
5578;DHT22;2811;51.900;10.734;2022-12-07T11:54:58;5.40;99.90
5578;DHT22;2811;51.900;10.734;2022-12-07T11:57:32;5.40;99.90
5578;DHT22;2811;51.900;10.734;2022-12-07T12:00:03;5.50;99.90
5578;DHT22;2811;51.900;10.734;2022-12-07T12:02:35;5.60;99.90
5578;DHT22;2811;51.900;10.734;2022-12-07T12:05:13;5.80;99.90
5578;DHT22;2811;51.900;10.734;2022-12-07T12:07:43;5.90;99.90
5578;DHT22;2811;51.900;10.734;2022-12-07T12:10:18;5.90;99.90
5578;DHT22;2811;51.900;10.734;2022-12-07T12:13:00;5.90;99.90
5578;DHT22;2811;51.900;10.734;2022-12-07T12:15:41;5.90;99.90
5578;DHT22;2811;51.900;10.734;2022-12-07T12:18:30;5.80;99.90
5578;DHT22;2811;51.900;10.734;2022-12-07T12:21:04;5.90;99.90
5578;DHT22;2811;51.900;10.734;2022-12-07T12:23:38;6.00;99.90
5578;DHT22;2811;51.900;10.734;2022-12-07T12:26:08;6.00;99.90
5578;DHT22;2811;51.900;10.734;2022-12-07T12:28:42;5.90;99.90
5578;DHT22;2811;51.900;10.734;2022-12-07T12:31:28;5.80;99.90
5578;DHT22;2811;51.900;10.734;2022-12-07T12:33:59;5.70;99.90
5578;DHT22;2811;51.900;10.734;2022-12-07T12:36:45;5.60;99.90
5578;DHT22;2811;51.900;10.734;2022-12-07T12:39:13;5.50;99.90
5578;DHT22;2811;51.900;10.734;2022-12-07T12:41:57;5.50;99.90
5578;DHT22;2811;51.900;10.734;2022-12-07T12:50:25;5.50;99.90
5578;DHT22;2811;51.900;10.734;2022-12-07T12:53:00;5.50;99.90
5578;DHT22;2811;51.900;10.734;2022-12-07T12:55:54;5.50;99.90
5578;DHT22;2811;51.900;10.734;2022-12-07T13:01:44;5.60;99.90
5578;DHT22;2811;51.900;10.734;2022-12-07T13:04:28;5.60;99.90
5578;DHT22;2811;51.900;10.734;2022-12-07T13:06:55;5.60;99.90
5578;DHT22;2811;51.900;10.734;2022-12-07T13:09:25;5.60;99.90
5578;DHT22;2811;51.900;10.734;2022-12-07T13:12:01;5.60;99.90
5578;DHT22;2811;51.900;10.734;2022-12-07T13:14:40;5.50;99.90
5578;DHT22;2811;51.900;10.734;2022-12-07T13:17:08;5.40;99.90
5578;DHT22;2811;51.900;10.734;2022-12-07T13:19:57;5.30;99.90
5578;DHT22;2811;51.900;10.734;2022-12-07T13:22:46;5.20;99.90
5578;DHT22;2811;51.900;10.734;2022-12-07T13:25:28;5.20;99.90
5578;DHT22;2811;51.900;10.734;2022-12-07T13:27:58;5.10;99.90
5578;DHT22;2811;51.900;10.734;2022-12-07T13:30:28;4.90;99.90
5578;DHT22;2811;51.900;10.734;2022-12-07T13:32:57;4.30;99.90
5578;DHT22;2811;51.900;10.734;2022-12-07T13:35:32;3.80;99.90
5578;DHT22;2811;51.900;10.734;2022-12-07T13:38:01;3.50;99.90
5578;DHT22;2811;51.900;10.734;2022-12-07T13:40:29;3.20;99.90
5578;DHT22;2811;51.900;10.734;2022-12-07T13:43:00;3.10;99.90
5578;DHT22;2811;51.900;10.734;2022-12-07T13:45:29;3.00;99.90
5578;DHT22;2811;51.900;10.734;2022-12-07T13:48:18;3.00;99.90
5578;DHT22;2811;51.900;10.734;2022-12-07T13:50:53;3.10;99.90
5578;DHT22;2811;51.900;10.734;2022-12-07T13:53:20;3.20;99.90
5578;DHT22;2811;51.900;10.734;2022-12-07T13:55:49;3.20;99.90
5578;DHT22;2811;51.900;10.734;2022-12-07T13:58:16;3.30;99.90
5578;DHT22;2811;51.900;10.734;2022-12-07T14:00:43;3.50;99.90
5578;DHT22;2811;51.900;10.734;2022-12-07T14:03:28;3.60;99.90
5578;DHT22;2811;51.900;10.734;2022-12-07T14:06:13;3.80;99.90
5578;DHT22;2811;51.900;10.734;2022-12-07T14:08:40;3.90;99.90
5578;DHT22;2811;51.900;10.734;2022-12-07T14:11:12;4.00;99.90
5578;DHT22;2811;51.900;10.734;2022-12-07T14:13:45;4.20;99.90
5578;DHT22;2811;51.900;10.734;2022-12-07T14:16:23;4.30;99.90
5578;DHT22;2811;51.900;10.734;2022-12-07T14:18:51;4.40;99.90
5578;DHT22;2811;51.900;10.734;2022-12-07T14:21:21;4.50;99.90
5578;DHT22;2811;51.900;10.734;2022-12-07T14:24:08;4.40;99.90
5578;DHT22;2811;51.900;10.734;2022-12-07T14:26:37;4.40;99.90
5578;DHT22;2811;51.900;10.734;2022-12-07T14:29:29;4.40;99.90
5578;DHT22;2811;51.900;10.734;2022-12-07T14:31:57;4.50;99.90
5578;DHT22;2811;51.900;10.734;2022-12-07T14:34:25;4.50;99.90
5578;DHT22;2811;51.900;10.734;2022-12-07T14:36:52;4.50;99.90
5578;DHT22;2811;51.900;10.734;2022-12-07T14:39:19;4.50;99.90
5578;DHT22;2811;51.900;10.734;2022-12-07T14:41:47;4.50;99.90
5578;DHT22;2811;51.900;10.734;2022-12-07T14:44:18;4.50;99.90
5578;DHT22;2811;51.900;10.734;2022-12-07T14:46:45;4.50;99.90
5578;DHT22;2811;51.900;10.734;2022-12-07T14:49:11;4.50;99.90
5578;DHT22;2811;51.900;10.734;2022-12-07T14:51:39;4.40;99.90
5578;DHT22;2811;51.900;10.734;2022-12-07T14:54:11;4.40;99.90
5578;DHT22;2811;51.900;10.734;2022-12-07T14:56:40;4.40;99.90
5578;DHT22;2811;51.900;10.734;2022-12-07T14:59:08;4.30;99.90
5578;DHT22;2811;51.900;10.734;2022-12-07T15:01:35;4.30;99.90
5578;DHT22;2811;51.900;10.734;2022-12-07T15:04:02;4.30;99.90
5578;DHT22;2811;51.900;10.734;2022-12-07T15:06:29;4.30;99.90
5578;DHT22;2811;51.900;10.734;2022-12-07T15:08:55;4.20;99.90
5578;DHT22;2811;51.900;10.734;2022-12-07T15:11:22;4.20;99.90
5578;DHT22;2811;51.900;10.734;2022-12-07T15:13:49;4.20;99.90
5578;DHT22;2811;51.900;10.734;2022-12-07T15:16:35;4.20;99.90
5578;DHT22;2811;51.900;10.734;2022-12-07T15:19:02;4.10;99.90
5578;DHT22;2811;51.900;10.734;2022-12-07T15:21:29;4.20;99.90
5578;DHT22;2811;51.900;10.734;2022-12-07T15:23:56;4.20;99.90
5578;DHT22;2811;51.900;10.734;2022-12-07T15:26:23;4.20;99.90
5578;DHT22;2811;51.900;10.734;2022-12-07T15:28:52;4.20;99.90
5578;DHT22;2811;51.900;10.734;2022-12-07T15:31:18;4.20;99.90
5578;DHT22;2811;51.900;10.734;2022-12-07T15:33:47;4.20;99.90
5578;DHT22;2811;51.900;10.734;2022-12-07T15:36:18;4.20;99.90
5578;DHT22;2811;51.900;10.734;2022-12-07T15:38:45;4.20;99.90
5578;DHT22;2811;51.900;10.734;2022-12-07T15:41:12;4.10;99.90
5578;DHT22;2811;51.900;10.734;2022-12-07T15:43:39;4.10;99.90
5578;DHT22;2811;51.900;10.734;2022-12-07T15:46:23;4.10;99.90
5578;DHT22;2811;51.900;10.734;2022-12-07T15:48:51;4.10;99.90
5578;DHT22;2811;51.900;10.734;2022-12-07T15:51:18;4.00;99.90
5578;DHT22;2811;51.900;10.734;2022-12-07T15:53:45;4.10;99.90
5578;DHT22;2811;51.900;10.734;2022-12-07T15:56:11;4.10;99.90
5578;DHT22;2811;51.900;10.734;2022-12-07T15:58:38;4.10;99.90
5578;DHT22;2811;51.900;10.734;2022-12-07T16:01:10;4.10;99.90
5578;DHT22;2811;51.900;10.734;2022-12-07T16:03:37;4.10;99.90
5578;DHT22;2811;51.900;10.734;2022-12-07T16:06:06;4.10;99.90
5578;DHT22;2811;51.900;10.734;2022-12-07T16:08:32;4.00;99.90
5578;DHT22;2811;51.900;10.734;2022-12-07T16:10:59;4.00;99.90
5578;DHT22;2811;51.900;10.734;2022-12-07T16:13:26;3.90;99.90
5578;DHT22;2811;51.900;10.734;2022-12-07T16:15:53;3.90;99.90
5578;DHT22;2811;51.900;10.734;2022-12-07T16:18:19;3.90;99.90
5578;DHT22;2811;51.900;10.734;2022-12-07T16:20:47;3.90;99.90
5578;DHT22;2811;51.900;10.734;2022-12-07T16:23:16;3.80;99.90
5578;DHT22;2811;51.900;10.734;2022-12-07T16:25:43;3.80;99.90
5578;DHT22;2811;51.900;10.734;2022-12-07T16:28:09;3.90;99.90
5578;DHT22;2811;51.900;10.734;2022-12-07T16:30:36;3.80;99.90
5578;DHT22;2811;51.900;10.734;2022-12-07T16:33:03;3.90;99.90
5578;DHT22;2811;51.900;10.734;2022-12-07T16:35:30;3.80;99.90
5578;DHT22;2811;51.900;10.734;2022-12-07T16:37:56;3.80;99.90